createdAt,value
2023-09-29T00:02:01.806Z,99804.36
2023-09-29T00:04:35.828Z,99802.64
2023-09-29T00:07:23.496Z,99809.64
2023-09-29T00:09:56.989Z,99811.41
2023-09-29T00:12:45.290Z,99810.49
2023-09-29T00:15:20.597Z,99807.02
2023-09-29T00:18:09.528Z,99813.14
2023-09-29T00:20:43.681Z,99819.33
2023-09-29T00:23:31.530Z,99814.91
2023-09-29T00:26:05.127Z,99809.63
2023-09-29T00:28:52.976Z,99809.66
2023-09-29T00:31:26.329Z,99820.17
2023-09-29T00:34:14.087Z,99818.42
2023-09-29T00:36:48.595Z,99820.19
2023-09-29T00:39:36.551Z,99814.05
2023-09-29T00:42:10.339Z,99815.80
2023-09-29T00:44:57.898Z,99823.69
2023-09-29T00:47:48.279Z,99811.41
2023-09-29T00:50:22.688Z,99827.20
2023-09-29T00:53:15.419Z,99813.17
2023-09-29T00:55:49.993Z,99817.55
2023-09-29T00:58:39.050Z,99811.43
2023-09-29T01:01:13.277Z,99813.17
2023-09-29T01:04:00.882Z,99814.94
2023-09-29T01:06:34.417Z,99816.69
2023-09-29T01:12:05.694Z,99810.55
2023-09-29T01:14:39.277Z,99813.19
2023-09-29T01:17:27.920Z,99807.94
2023-09-29T01:20:01.828Z,99813.17
2023-09-29T01:22:51.203Z,99818.44
2023-09-29T01:25:24.945Z,99821.94
2023-09-29T01:28:13.421Z,99822.81
2023-09-29T01:30:46.909Z,99818.43
2023-09-29T01:33:34.966Z,99821.94
2023-09-29T01:36:09.852Z,99823.67
2023-09-29T01:38:57.717Z,99819.30
2023-09-29T01:41:31.692Z,99817.51
2023-09-29T01:44:19.404Z,99821.91
2023-09-29T01:46:52.851Z,99823.64
2023-09-29T01:49:40.551Z,99829.77
2023-09-29T01:52:14.053Z,99820.09
2023-09-29T01:54:47.471Z,99822.72
2023-09-29T01:57:35.771Z,99817.49
2023-09-29T02:00:14.261Z,99815.72
2023-09-29T02:03:03.904Z,99820.13
2023-09-29T02:05:38.186Z,99820.97
2023-09-29T02:08:26.974Z,99818.36
2023-09-29T02:11:01.827Z,99808.70
2023-09-29T02:13:49.820Z,99812.22
2023-09-29T02:16:28.292Z,99814.82
2023-09-29T02:19:17.323Z,99812.22
2023-09-29T02:22:06.285Z,99818.33
2023-09-29T02:24:40.651Z,99816.55
2023-09-29T02:27:28.431Z,99821.85
2023-09-29T02:30:01.763Z,99820.94
2023-09-29T02:32:50.179Z,99813.98
2023-09-29T02:35:25.425Z,99820.07
2023-09-29T02:38:13.950Z,99820.13
2023-09-29T02:41:01.746Z,99813.97
2023-09-29T02:43:49.400Z,99809.62
2023-09-29T02:46:22.688Z,99812.19
2023-09-29T02:49:10.668Z,99808.75
2023-09-29T02:51:44.352Z,99806.97
2023-09-29T02:54:32.119Z,99814.87
2023-09-29T02:57:05.578Z,99819.20
2023-09-29T02:59:53.396Z,99807.86
2023-09-29T03:02:26.911Z,99809.59
2023-09-29T03:05:16.443Z,99806.98
2023-09-29T03:07:51.647Z,99819.20
2023-09-29T03:10:40.216Z,99824.47
2023-09-29T03:13:14.486Z,99819.20
2023-09-29T03:16:03.007Z,99821.85
2023-09-29T03:18:36.961Z,99822.70
2023-09-29T03:21:24.669Z,99828.84
2023-09-29T03:23:58.299Z,99832.30
2023-09-29T03:26:48.612Z,99827.97
2023-09-29T03:29:22.319Z,99829.68
2023-09-29T03:32:10.598Z,99822.72
2023-09-29T03:34:44.292Z,99822.67
2023-09-29T03:37:33.414Z,99819.20
2023-09-29T03:40:12.087Z,99814.80
2023-09-29T03:43:01.074Z,99808.73
2023-09-29T03:45:50.716Z,99809.59
2023-09-29T03:48:39.565Z,99811.35
2023-09-29T03:51:13.065Z,99807.84
2023-09-29T03:54:00.905Z,99802.60
2023-09-29T03:56:34.470Z,99798.20
2023-09-29T03:59:22.791Z,99797.37
2023-09-29T04:01:56.374Z,99798.22
2023-09-29T04:04:43.855Z,99799.12
2023-09-29T04:07:31.357Z,99807.00
2023-09-29T04:10:12.576Z,99807.86
2023-09-29T04:13:00.290Z,99811.38
2023-09-29T04:15:33.777Z,99811.37
2023-09-29T04:18:21.482Z,99804.39
2023-09-29T04:21:18.901Z,99803.52
2023-09-29T04:24:06.123Z,99805.27
2023-09-29T04:26:39.635Z,99805.24
2023-09-29T04:29:27.405Z,99797.39
2023-09-29T04:32:15.032Z,99795.66
2023-09-29T04:35:02.296Z,99799.14
2023-09-29T04:37:35.761Z,99797.41
2023-09-29T04:40:23.970Z,99799.16
2023-09-29T04:43:11.937Z,99797.42
2023-09-29T04:45:45.355Z,99801.77
2023-09-29T04:48:33.213Z,99801.78
2023-09-29T04:51:06.764Z,99799.16
2023-09-29T04:53:54.085Z,99792.17
2023-09-29T04:56:27.588Z,99793.90
2023-09-29T04:59:15.441Z,99785.13
2023-09-29T05:01:49.144Z,99797.41
2023-09-29T05:04:36.688Z,99786.89
2023-09-29T05:07:10.230Z,99798.27
2023-09-29T05:09:58.342Z,99797.40
2023-09-29T05:12:31.691Z,99801.78
2023-09-29T05:15:19.261Z,99804.39
2023-09-29T05:17:52.721Z,99807.00
2023-09-29T05:20:40.285Z,99799.12
2023-09-29T05:23:13.847Z,99806.12
2023-09-29T05:26:05.563Z,99801.70
2023-09-29T05:28:39.954Z,99805.23
2023-09-29T05:31:27.519Z,99802.50
2023-09-29T05:34:15.115Z,99805.08
2023-09-29T05:36:48.434Z,99801.59
2023-09-29T05:39:36.791Z,99795.34
2023-09-29T05:42:10.537Z,99807.66
2023-09-29T05:44:58.777Z,99802.22
2023-09-29T05:47:34.943Z,99797.81
2023-09-29T05:50:23.413Z,99798.48
2023-09-29T05:53:11.505Z,99798.36
2023-09-29T05:55:44.882Z,99799.27
2023-09-29T05:58:32.150Z,99795.55
2023-09-29T06:01:12.234Z,99801.52
2023-09-29T06:04:00.235Z,99794.54
2023-09-29T06:06:33.572Z,99798.16
2023-09-29T06:09:21.705Z,99795.95
2023-09-29T06:12:10.220Z,99782.13
2023-09-29T06:14:43.681Z,99797.30
2023-09-29T06:17:31.657Z,99792.64
2023-09-29T06:20:20.681Z,99785.50
2023-09-29T06:22:54.184Z,99785.60
2023-09-29T06:25:42.136Z,99777.55
2023-09-29T06:28:15.736Z,99788.71
2023-09-29T06:31:03.790Z,99781.69
2023-09-29T06:33:51.665Z,99786.64
2023-09-29T06:36:25.265Z,99784.32
2023-09-29T06:39:13.824Z,99784.82
2023-09-29T06:42:01.493Z,99778.32
2023-09-29T06:44:35.312Z,99780.05
2023-09-29T06:47:22.749Z,99787.56
2023-09-29T06:49:57.148Z,99781.19
2023-09-29T06:52:44.608Z,99774.34
2023-09-29T06:55:32.512Z,99773.36
2023-09-29T06:58:20.174Z,99779.41
2023-09-29T07:00:53.577Z,99775.59
2023-09-29T07:03:41.170Z,99772.98
2023-09-29T07:06:14.739Z,99780.48
2023-09-29T07:09:03.183Z,99779.63
2023-09-29T07:11:53.376Z,99783.77
2023-09-29T07:14:26.806Z,99784.67
2023-09-29T07:17:14.637Z,99778.88
2023-09-29T07:19:48.084Z,99791.27
2023-09-29T07:22:37.561Z,99789.47
2023-09-29T07:25:13.103Z,99790.55
2023-09-29T07:28:01.081Z,99789.34
2023-09-29T07:30:34.502Z,99784.83
2023-09-29T07:33:22.111Z,99776.61
2023-09-29T07:35:55.788Z,99791.73
2023-09-29T07:38:43.998Z,99787.16
2023-09-29T07:41:18.466Z,99786.48
2023-09-29T07:44:07.574Z,99783.67
2023-09-29T07:46:41.198Z,99790.74
2023-09-29T07:49:29.341Z,99787.06
2023-09-29T07:52:02.673Z,99789.63
2023-09-29T07:54:50.484Z,99781.95
2023-09-29T07:57:24.426Z,99792.95
2023-09-29T08:00:15.234Z,99782.10
2023-09-29T08:03:02.965Z,99780.61
2023-09-29T08:05:36.770Z,99785.27
2023-09-29T08:08:25.655Z,99776.95
2023-09-29T08:11:13.217Z,99779.55
2023-09-29T08:13:48.018Z,99777.10
2023-09-29T08:16:36.311Z,99777.63
2023-09-29T08:19:09.943Z,99783.84
2023-09-29T08:21:57.555Z,99775.47
2023-09-29T08:24:45.016Z,99779.80
2023-09-29T08:27:18.511Z,99782.68
2023-09-29T08:30:12.279Z,99769.41
2023-09-29T08:33:14.644Z,99768.29
2023-09-29T08:35:34.927Z,99765.70
2023-09-29T08:38:23.818Z,99764.29
2023-09-29T08:40:59.608Z,99774.89
2023-09-29T08:44:04.041Z,99773.19
2023-09-29T08:46:41.442Z,99765.47
2023-09-29T08:49:17.205Z,99765.30
2023-09-29T08:52:07.081Z,99760.33
2023-09-29T08:54:41.209Z,99764.05
2023-09-29T08:57:30.007Z,99755.05
2023-09-29T09:00:05.644Z,99763.23
2023-09-29T09:02:53.557Z,99744.17
2023-09-29T09:05:27.301Z,99744.01
2023-09-29T09:08:15.199Z,99746.14
2023-09-29T09:11:03.816Z,99740.38
2023-09-29T09:13:37.529Z,99743.16
2023-09-29T09:16:25.716Z,99743.10
2023-09-29T09:19:00.733Z,99746.83
2023-09-29T09:21:48.504Z,99752.78
2023-09-29T09:24:35.791Z,99739.41
2023-09-29T09:27:10.138Z,99742.29
2023-09-29T09:29:58.721Z,99732.97
2023-09-29T09:32:35.782Z,99721.30
2023-09-29T09:35:30.888Z,99730.95
2023-09-29T09:38:05.794Z,99736.12
2023-09-29T09:40:59.301Z,99724.08
2023-09-29T09:43:34.396Z,99727.52
2023-09-29T09:46:23.083Z,99720.48
2023-09-29T09:49:01.503Z,99733.25
2023-09-29T09:51:50.953Z,99716.59
2023-09-29T09:54:27.257Z,99720.47
2023-09-29T09:57:18.635Z,99719.92
2023-09-29T09:59:55.822Z,99719.69
2023-09-29T10:02:45.886Z,99711.91
2023-09-29T10:05:23.558Z,99726.27
2023-09-29T10:08:14.128Z,99717.25
2023-09-29T10:11:12.772Z,99705.77
2023-09-29T10:13:51.293Z,99707.33
2023-09-29T10:16:40.427Z,99701.31
2023-09-29T10:19:38.807Z,99699.99
2023-09-29T10:22:12.656Z,99700.02
2023-09-29T10:25:01.069Z,99707.39
2023-09-29T10:27:36.147Z,99695.24
2023-09-29T10:30:27.640Z,99695.77
2023-09-29T10:33:08.708Z,99696.66
2023-09-29T10:35:56.369Z,99683.48
2023-09-29T10:38:31.204Z,99690.37
2023-09-29T10:41:34.446Z,99681.16
2023-09-29T10:43:56.854Z,99687.53
2023-09-29T10:46:52.343Z,99675.58
2023-09-29T10:49:36.569Z,99676.97
2023-09-29T10:52:24.565Z,99667.41
2023-09-29T10:55:00.315Z,99672.13
2023-09-29T10:57:51.152Z,99673.34
2023-09-29T11:00:23.461Z,99653.73
2023-09-29T11:02:57.296Z,99659.61
2023-09-29T11:05:56.145Z,99667.14
2023-09-29T11:08:34.352Z,99661.44
2023-09-29T11:11:22.269Z,99654.78
2023-09-29T11:14:10.284Z,99643.87
2023-09-29T11:16:43.938Z,99649.26
2023-09-29T11:19:32.763Z,99643.98
2023-09-29T11:22:07.214Z,99640.95
2023-09-29T11:24:55.591Z,99644.94
2023-09-29T11:27:34.909Z,99636.79
2023-09-29T11:30:24.525Z,99646.31
2023-09-29T11:32:58.468Z,99641.50
2023-09-29T11:38:36.823Z,99631.83
2023-09-29T11:41:10.082Z,99635.20
2023-09-29T11:43:57.908Z,99622.34
2023-09-29T11:46:31.248Z,99628.53
2023-09-29T11:49:18.819Z,99617.22
2023-09-29T11:51:54.780Z,99642.56
2023-09-29T11:54:42.434Z,99621.99
2023-09-29T11:57:15.845Z,99622.08
2023-09-29T12:00:03.684Z,99621.98
2023-09-29T12:02:52.740Z,99623.67
2023-09-29T12:05:41.252Z,99617.35
2023-09-29T12:08:14.893Z,99620.77
2023-09-29T12:11:02.571Z,99612.04
2023-09-29T12:13:50.470Z,99618.98
2023-09-29T12:16:24.056Z,99615.53
2023-09-29T12:18:58.221Z,99615.88
2023-09-29T12:21:45.632Z,99618.09
2023-09-29T12:24:19.300Z,99625.27
2023-09-29T12:27:07.325Z,99606.18
2023-09-29T12:29:41.105Z,99614.14
2023-09-29T12:32:28.479Z,99600.14
2023-09-29T12:35:16.289Z,99606.98
2023-09-29T12:37:50.058Z,99595.57
2023-09-29T12:40:39.219Z,99608.61
2023-09-29T12:43:12.471Z,99605.97
2023-09-29T12:45:59.922Z,99607.25
2023-09-29T12:48:33.578Z,99599.38
2023-09-29T12:51:28.002Z,99601.39
2023-09-29T12:53:57.914Z,99610.27
2023-09-29T12:56:59.545Z,99600.31
2023-09-29T12:59:37.570Z,99592.17
2023-09-29T13:02:12.322Z,99591.75
2023-09-29T13:05:00.342Z,99582.68
2023-09-29T13:07:34.883Z,99588.16
2023-09-29T13:10:23.403Z,99588.87
2023-09-29T13:12:56.905Z,99599.41
2023-09-29T13:15:44.799Z,99594.38
2023-09-29T13:18:18.117Z,99598.52
2023-09-29T13:21:06.090Z,99574.97
2023-09-29T13:23:39.456Z,99574.37
2023-09-29T13:26:27.149Z,99567.37
2023-09-29T13:29:00.375Z,99574.04
2023-09-29T13:31:48.127Z,99586.84
2023-09-29T13:34:36.339Z,99576.02
2023-09-29T13:37:09.793Z,99573.51
2023-09-29T13:39:58.462Z,99574.25
2023-09-29T13:42:31.837Z,99554.21
2023-09-29T13:45:19.880Z,99569.53
2023-09-29T13:47:53.607Z,99576.59
2023-09-29T13:50:47.333Z,99566.61
2023-09-29T13:53:20.961Z,99580.22
2023-09-29T13:56:09.675Z,99574.45
2023-09-29T13:58:43.700Z,99572.88
2023-09-29T14:01:19.336Z,99573.35
2023-09-29T14:04:08.410Z,99570.76
2023-09-29T14:06:56.720Z,99563.55
2023-09-29T14:09:30.240Z,99566.34
2023-09-29T14:12:17.838Z,99556.30
2023-09-29T14:14:51.085Z,99559.80
2023-09-29T14:17:38.697Z,99548.56
2023-09-29T14:20:14.803Z,99558.95
2023-09-29T14:23:03.379Z,99555.90
2023-09-29T14:25:37.311Z,99559.40
2023-09-29T14:28:25.466Z,99547.61
2023-09-29T14:31:14.374Z,99539.03
2023-09-29T14:33:47.568Z,99543.50
2023-09-29T14:36:35.149Z,99536.20
2023-09-29T14:39:22.887Z,99544.51
2023-09-29T14:41:56.312Z,99543.77
2023-09-29T14:44:44.220Z,99539.28
2023-09-29T14:47:17.975Z,99541.16
2023-09-29T14:50:07.862Z,99532.87
2023-09-29T14:52:55.512Z,99533.02
2023-09-29T14:55:29.599Z,99537.16
2023-09-29T14:58:17.779Z,99541.42
2023-09-29T15:00:50.953Z,99541.64
2023-09-29T15:03:39.039Z,99535.72
2023-09-29T15:06:15.326Z,99539.57
2023-09-29T15:09:02.686Z,99539.72
2023-09-29T15:11:36.651Z,99541.50
2023-09-29T15:14:25.771Z,99537.91
2023-09-29T15:16:59.419Z,99538.77
2023-09-29T15:19:47.146Z,99532.30
2023-09-29T15:22:22.540Z,99534.91
2023-09-29T15:25:11.910Z,99533.00
2023-09-29T15:27:45.509Z,99531.08
2023-09-29T15:30:32.894Z,99529.95
2023-09-29T15:33:06.710Z,99534.19
2023-09-29T15:35:56.571Z,99534.05
2023-09-29T15:38:29.919Z,99531.30
2023-09-29T15:41:17.548Z,99529.45
2023-09-29T15:44:05.455Z,99528.77
2023-09-29T15:46:39.008Z,99534.70
2023-09-29T15:49:26.671Z,99522.95
2023-09-29T15:52:00.151Z,99527.23
2023-09-29T15:54:47.569Z,99520.80
2023-09-29T15:57:35.904Z,99511.48
2023-09-29T16:00:14.295Z,99521.69
2023-09-29T16:03:02.206Z,99525.97
2023-09-29T16:05:36.103Z,99514.27
2023-09-29T16:08:23.977Z,99509.64
2023-09-29T16:10:58.498Z,99509.49
2023-09-29T16:13:46.837Z,99500.59
2023-09-29T16:16:20.520Z,99508.31
2023-09-29T16:19:08.326Z,99507.05
2023-09-29T16:21:41.734Z,99502.23
2023-09-29T16:24:30.138Z,99503.14
2023-09-29T16:27:05.492Z,99510.84
2023-09-29T16:29:53.118Z,99509.81
2023-09-29T16:32:32.453Z,99509.56
2023-09-29T16:35:21.466Z,99504.16
2023-09-29T16:37:51.754Z,99500.38
2023-09-29T16:40:40.272Z,99506.41
2023-09-29T16:43:14.206Z,99499.74
2023-09-29T16:46:02.069Z,99494.30
2023-09-29T16:48:35.348Z,99496.61
2023-09-29T16:51:25.055Z,99489.37
2023-09-29T16:53:59.244Z,99499.70
2023-09-29T16:56:46.997Z,99496.80
2023-09-29T16:59:20.553Z,99491.97
2023-09-29T17:02:08.347Z,99494.39
2023-09-29T17:04:56.284Z,99499.64
2023-09-29T17:07:29.891Z,99497.41
2023-09-29T17:10:17.792Z,99495.42
2023-09-29T17:12:52.687Z,99495.88
2023-09-29T17:15:43.107Z,99493.11
2023-09-29T17:18:17.223Z,99496.39
2023-09-29T17:21:05.153Z,99496.05
2023-09-29T17:23:52.804Z,99493.45
2023-09-29T17:26:26.327Z,99503.62
2023-09-29T17:29:14.297Z,99491.98
2023-09-29T17:31:48.736Z,99489.86
2023-09-29T17:34:37.853Z,99478.39
2023-09-29T17:37:25.476Z,99475.11
2023-09-29T17:39:59.832Z,99476.47
2023-09-29T17:42:53.548Z,99474.48
2023-09-29T17:45:27.702Z,99484.54
2023-09-29T17:48:29.791Z,99474.55
2023-09-29T17:50:50.729Z,99483.78
2023-09-29T17:53:40.153Z,99476.47
2023-09-29T17:56:14.075Z,99482.98
2023-09-29T17:59:02.257Z,99484.54
2023-09-29T18:01:35.981Z,99487.55
2023-09-29T18:04:24.600Z,99481.08
2023-09-29T18:07:00.252Z,99477.89
2023-09-29T18:09:48.217Z,99481.14
2023-09-29T18:12:22.254Z,99478.90
2023-09-29T18:15:13.042Z,99464.55
2023-09-29T18:17:46.875Z,99473.82
2023-09-29T18:20:35.069Z,99465.66
2023-09-29T18:23:09.084Z,99461.66
2023-09-29T18:25:56.738Z,99470.27
2023-09-29T18:28:31.876Z,99465.36
2023-09-29T18:31:19.785Z,99471.31
2023-09-29T18:33:54.068Z,99468.11
2023-09-29T18:36:41.569Z,99469.61
2023-09-29T18:39:17.453Z,99471.82
2023-09-29T18:42:07.280Z,99460.17
2023-09-29T18:44:40.435Z,99463.27
2023-09-29T18:47:28.756Z,99456.88
2023-09-29T18:50:02.868Z,99459.96
2023-09-29T18:52:50.607Z,99455.41
2023-09-29T18:55:39.802Z,99457.31
2023-09-29T18:58:27.482Z,99457.41
2023-09-29T19:01:01.006Z,99459.59
2023-09-29T19:03:48.529Z,99465.59
2023-09-29T19:06:37.517Z,99454.29
2023-09-29T19:09:11.760Z,99459.06
2023-09-29T19:12:01.226Z,99447.39
2023-09-29T19:14:34.858Z,99450.41
2023-09-29T19:17:24.020Z,99442.23
2023-09-29T19:20:13.012Z,99445.83
2023-09-29T19:22:46.444Z,99447.08
2023-09-29T19:25:19.954Z,99440.12
2023-09-29T19:28:10.185Z,99440.89
2023-09-29T19:30:58.802Z,99440.08
2023-09-29T19:33:32.153Z,99445.69
2023-09-29T19:36:19.981Z,99431.38
2023-09-29T19:38:53.653Z,99438.77
2023-09-29T19:41:41.306Z,99442.82
2023-09-29T19:44:14.836Z,99443.94
2023-09-29T19:47:02.369Z,99444.57
2023-09-29T19:49:51.160Z,99437.53
2023-09-29T19:52:24.512Z,99440.48
2023-09-29T19:55:17.216Z,99434.97
2023-09-29T19:57:51.892Z,99433.48
2023-09-29T20:00:39.324Z,99438.59
2023-09-29T20:03:14.520Z,99427.47
2023-09-29T20:06:03.046Z,99427.25
2023-09-29T20:08:51.627Z,99428.20
2023-09-29T20:11:26.290Z,99440.01
2023-09-29T20:14:14.711Z,99429.22
2023-09-29T20:16:48.322Z,99435.69
2023-09-29T20:19:36.658Z,99431.98
2023-09-29T20:22:10.917Z,99435.81
2023-09-29T20:25:01.895Z,99432.11
2023-09-29T20:27:35.674Z,99435.95
2023-09-29T20:30:23.694Z,99430.53
2023-09-29T20:32:58.300Z,99430.86
2023-09-29T20:35:46.250Z,99429.84
2023-09-29T20:38:34.639Z,99428.22
2023-09-29T20:41:22.866Z,99425.66
2023-09-29T20:43:57.312Z,99428.65
2023-09-29T20:46:46.377Z,99425.85
2023-09-29T20:49:20.625Z,99428.80
2023-09-29T20:51:54.233Z,99422.70
2023-09-29T20:54:42.173Z,99425.19
2023-09-29T20:57:16.038Z,99439.52
2023-09-29T21:00:03.944Z,99431.44
2023-09-29T21:02:37.925Z,99437.02
2023-09-29T21:05:26.218Z,99436.91
2023-09-29T21:08:00.342Z,99441.62
2023-09-29T21:10:48.128Z,99442.38
2023-09-29T21:13:21.729Z,99438.27
2023-09-29T21:16:12.162Z,99432.81
2023-09-29T21:18:45.948Z,99436.59
2023-09-29T21:21:33.618Z,99432.91
2023-09-29T21:24:21.663Z,99436.52
2023-09-29T21:26:55.054Z,99440.28
2023-09-29T21:29:42.634Z,99433.09
2023-09-29T21:32:15.871Z,99431.61
2023-09-29T21:35:03.420Z,99431.44
2023-09-29T21:37:36.946Z,99431.64
2023-09-29T21:40:24.733Z,99439.36
2023-09-29T21:43:12.371Z,99431.47
2023-09-29T21:46:00.016Z,99430.61
2023-09-29T21:48:47.755Z,99428.08
2023-09-29T21:51:21.508Z,99431.80
2023-09-29T21:54:11.096Z,99431.64
2023-09-29T21:56:58.760Z,99417.75
2023-09-29T21:59:32.249Z,99424.94
2023-09-29T22:02:20.094Z,99426.55
2023-09-29T22:05:10.609Z,99416.09
2023-09-29T22:07:44.502Z,99423.37
2023-09-29T22:10:33.150Z,99422.36
2023-09-29T22:13:07.247Z,99424.34
2023-09-29T22:15:56.375Z,99420.73
2023-09-29T22:18:29.852Z,99423.61
2023-09-29T22:21:19.594Z,99420.82
2023-09-29T22:23:53.750Z,99426.33
2023-09-29T22:26:41.571Z,99420.94
2023-09-29T22:29:14.830Z,99423.75
2023-09-29T22:32:03.704Z,99415.70
2023-09-29T22:34:53.323Z,99413.09
2023-09-29T22:37:26.866Z,99413.29
2023-09-29T22:40:16.482Z,99415.78
2023-09-29T22:42:50.487Z,99414.23
2023-09-29T22:45:23.985Z,99414.27
2023-09-29T22:48:11.734Z,99409.73
2023-09-29T22:50:45.526Z,99409.08
2023-09-29T22:53:33.069Z,99409.77
2023-09-29T22:56:13.366Z,99408.21
2023-09-29T22:59:00.909Z,99414.23
2023-09-29T23:01:35.079Z,99409.19
2023-09-29T23:04:22.708Z,99413.41
2023-09-29T23:06:55.853Z,99406.58
2023-09-29T23:09:43.540Z,99412.54
2023-09-29T23:12:31.444Z,99403.80
2023-09-29T23:15:06.313Z,99412.75
2023-09-29T23:17:55.618Z,99404.74
2023-09-29T23:20:43.388Z,99405.66
2023-09-29T23:23:32.537Z,99408.29
2023-09-29T23:26:22.256Z,99392.59
2023-09-29T23:29:09.885Z,99397.00
2023-09-29T23:31:43.901Z,99401.61
2023-09-29T23:34:31.523Z,99396.19
2023-09-29T23:37:19.248Z,99397.10
2023-09-29T23:40:08.015Z,99390.11
2023-09-29T23:42:42.501Z,99397.30
2023-09-29T23:45:30.321Z,99386.66
2023-09-29T23:48:04.051Z,99393.88
2023-09-29T23:50:51.616Z,99394.66
2023-09-29T23:53:26.735Z,99388.75
2023-09-29T23:56:14.370Z,99385.19
2023-09-29T23:59:02.490Z,99387.86
